Aviation Digital Data Service (ADDS)

Output produced by METARs form (2101 UTC 20 August 2019)
found at http://www.aviationweather.gov/metar/data/
 
METAR text: LJLJ 202030Z 30002KT CAVOK 21/19 Q1019 NOSIG
Conditions at: LJLJ (LJUBLJANA/BRNIK , SI) observed 2030 UTC 20 August 2019
Temperature: 21.0°C (70°F)
Dewpoint: 19.0°C (66°F) [RH = 88%]
Pressure (altimeter): 30.09 inches Hg (1019.0 mb)
Winds: from the WNW (300 degrees) at 2 MPH (2 knots; 1.0 m/s)
Visibility: 6 or more miles (10+ km)
Ceiling: ceiling and visibility are OK
Clouds: unknown
Weather: no significant weather observed at this time

METAR text: LJLJ 202000Z 00000KT CAVOK 22/19 Q1019 NOSIG
Conditions at: LJLJ (LJUBLJANA/BRNIK , SI) observed 2000 UTC 20 August 2019
Temperature: 22.0°C (72°F)
Dewpoint: 19.0°C (66°F) [RH = 83%]
Pressure (altimeter): 30.09 inches Hg (1019.0 mb)
Winds: calm
Visibility: 6 or more miles (10+ km)
Ceiling: ceiling and visibility are OK
Clouds: unknown
Weather: no significant weather observed at this time

METAR text: LJLJ 201930Z VRB01KT CAVOK 22/19 Q1019 NOSIG
Conditions at: LJLJ (LJUBLJANA/BRNIK , SI) observed 1930 UTC 20 August 2019
Temperature: 22.0°C (72°F)
Dewpoint: 19.0°C (66°F) [RH = 83%]
Pressure (altimeter): 30.09 inches Hg (1019.0 mb)
Winds: variable direction winds at 1 MPH (1 knots; 0.5 m/s)
Visibility: 6 or more miles (10+ km)
Ceiling: ceiling and visibility are OK
Clouds: unknown
Weather: no significant weather observed at this time

METAR text: LJLJ 201900Z VRB02KT 9999 FEW060 23/19 Q1019 NOSIG
Conditions at: LJLJ (LJUBLJANA/BRNIK , SI) observed 1900 UTC 20 August 2019
Temperature: 23.0°C (73°F)
Dewpoint: 19.0°C (66°F) [RH = 78%]
Pressure (altimeter): 30.09 inches Hg (1019.0 mb)
Winds: variable direction winds at 2 MPH (2 knots; 1.0 m/s)
Visibility: 6 or more miles (10+ km)
Ceiling: at least 12,000 feet AGL
Clouds: few clouds at 6000 feet AGL
Weather: no significant weather observed at this time

METAR text: LJLJ 201830Z 00000KT 9999 FEW060 24/20 Q1018 NOSIG
Conditions at: LJLJ (LJUBLJANA/BRNIK , SI) observed 1830 UTC 20 August 2019
Temperature: 24.0°C (75°F)
Dewpoint: 20.0°C (68°F) [RH = 78%]
Pressure (altimeter): 30.06 inches Hg (1018.0 mb)
Winds: calm
Visibility: 6 or more miles (10+ km)
Ceiling: at least 12,000 feet AGL
Clouds: few clouds at 6000 feet AGL
Weather: no significant weather observed at this time

METAR text: LJLJ 201800Z 10002KT 9999 FEW060 25/20 Q1018 NOSIG
Conditions at: LJLJ (LJUBLJANA/BRNIK , SI) observed 1800 UTC 20 August 2019
Temperature: 25.0°C (77°F)
Dewpoint: 20.0°C (68°F) [RH = 74%]
Pressure (altimeter): 30.06 inches Hg (1018.0 mb)
Winds: from the E (100 degrees) at 2 MPH (2 knots; 1.0 m/s)
Visibility: 6 or more miles (10+ km)
Ceiling: at least 12,000 feet AGL
Clouds: few clouds at 6000 feet AGL
Weather: no significant weather observed at this time

METAR text: LJLJ 201730Z 13004KT 9999 FEW060 27/19 Q1018 NOSIG
Conditions at: LJLJ (LJUBLJANA/BRNIK , SI) observed 1730 UTC 20 August 2019
Temperature: 27.0°C (81°F)
Dewpoint: 19.0°C (66°F) [RH = 62%]
Pressure (altimeter): 30.06 inches Hg (1018.0 mb)
Winds: from the SE (130 degrees) at 5 MPH (4 knots; 2.1 m/s)
Visibility: 6 or more miles (10+ km)
Ceiling: at least 12,000 feet AGL
Clouds: few clouds at 6000 feet AGL
Weather: no significant weather observed at this time

METAR text: LJLJ 201700Z 13004KT 100V160 9999 FEW060 29/18 Q1018 NOSIG
Conditions at: LJLJ (LJUBLJANA/BRNIK , SI) observed 1700 UTC 20 August 2019
Temperature: 29.0°C (84°F)
Dewpoint: 18.0°C (64°F) [RH = 52%]
Pressure (altimeter): 30.06 inches Hg (1018.0 mb)
Winds: from the SE (130 degrees) at 5 MPH (4 knots; 2.1 m/s)
Visibility: 6 or more miles (10+ km)
Ceiling: at least 12,000 feet AGL
Clouds: few clouds at 6000 feet AGL
Weather: no significant weather observed at this time

METAR text: LJLJ 201630Z 10004KT 060V120 9999 FEW060 29/18 Q1018 NOSIG
Conditions at: LJLJ (LJUBLJANA/BRNIK , SI) observed 1630 UTC 20 August 2019
Temperature: 29.0°C (84°F)
Dewpoint: 18.0°C (64°F) [RH = 52%]
Pressure (altimeter): 30.06 inches Hg (1018.0 mb)
Winds: from the E (100 degrees) at 5 MPH (4 knots; 2.1 m/s)
Visibility: 6 or more miles (10+ km)
Ceiling: at least 12,000 feet AGL
Clouds: few clouds at 6000 feet AGL
Weather: no significant weather observed at this time

METAR text: LJLJ 201600Z 15003KT 120V210 9999 FEW060 30/17 Q1018 NOSIG
Conditions at: LJLJ (LJUBLJANA/BRNIK , SI) observed 1600 UTC 20 August 2019
Temperature: 30.0°C (86°F)
Dewpoint: 17.0°C (63°F) [RH = 46%]
Pressure (altimeter): 30.06 inches Hg (1018.0 mb)
Winds: from the SSE (150 degrees) at 3 MPH (3 knots; 1.5 m/s)
Visibility: 6 or more miles (10+ km)
Ceiling: at least 12,000 feet AGL
Clouds: few clouds at 6000 feet AGL
Weather: no significant weather observed at this time

METAR text: LJLJ 201530Z 11004KT 080V170 9999 FEW060 30/16 Q1018 NOSIG
Conditions at: LJLJ (LJUBLJANA/BRNIK , SI) observed 1530 UTC 20 August 2019
Temperature: 30.0°C (86°F)
Dewpoint: 16.0°C (61°F) [RH = 43%]
Pressure (altimeter): 30.06 inches Hg (1018.0 mb)
Winds: from the ESE (110 degrees) at 5 MPH (4 knots; 2.1 m/s)
Visibility: 6 or more miles (10+ km)
Ceiling: at least 12,000 feet AGL
Clouds: few clouds at 6000 feet AGL
Weather: no significant weather observed at this time

METAR text: LJLJ 201500Z 08006KT 060V120 9999 FEW060 30/16 Q1018 NOSIG
Conditions at: LJLJ (LJUBLJANA/BRNIK , SI) observed 1500 UTC 20 August 2019
Temperature: 30.0°C (86°F)
Dewpoint: 16.0°C (61°F) [RH = 43%]
Pressure (altimeter): 30.06 inches Hg (1018.0 mb)
Winds: from the E (80 degrees) at 7 MPH (6 knots; 3.1 m/s)
Visibility: 6 or more miles (10+ km)
Ceiling: at least 12,000 feet AGL
Clouds: few clouds at 6000 feet AGL
Weather: no significant weather observed at this time

METAR text: LJLJ 201430Z 09005KT 050V150 9999 FEW060 30/16 Q1018 NOSIG
Conditions at: LJLJ (LJUBLJANA/BRNIK , SI) observed 1430 UTC 20 August 2019
Temperature: 30.0°C (86°F)
Dewpoint: 16.0°C (61°F) [RH = 43%]
Pressure (altimeter): 30.06 inches Hg (1018.0 mb)
Winds: from the E (90 degrees) at 6 MPH (5 knots; 2.6 m/s)
Visibility: 6 or more miles (10+ km)
Ceiling: at least 12,000 feet AGL
Clouds: few clouds at 6000 feet AGL
Weather: no significant weather observed at this time

METAR text: LJLJ 201400Z 08004KT 350V120 9999 FEW060 30/17 Q1018 NOSIG
Conditions at: LJLJ (LJUBLJANA/BRNIK , SI) observed 1400 UTC 20 August 2019
Temperature: 30.0°C (86°F)
Dewpoint: 17.0°C (63°F) [RH = 46%]
Pressure (altimeter): 30.06 inches Hg (1018.0 mb)
Winds: from the E (80 degrees) at 5 MPH (4 knots; 2.1 m/s)
Visibility: 6 or more miles (10+ km)
Ceiling: at least 12,000 feet AGL
Clouds: few clouds at 6000 feet AGL
Weather: no significant weather observed at this time

METAR text: LJLJ 201330Z 09004KT 030V120 9999 FEW060 30/17 Q1019 NOSIG
Conditions at: LJLJ (LJUBLJANA/BRNIK , SI) observed 1330 UTC 20 August 2019
Temperature: 30.0°C (86°F)
Dewpoint: 17.0°C (63°F) [RH = 46%]
Pressure (altimeter): 30.09 inches Hg (1019.0 mb)
Winds: from the E (90 degrees) at 5 MPH (4 knots; 2.1 m/s)
Visibility: 6 or more miles (10+ km)
Ceiling: at least 12,000 feet AGL
Clouds: few clouds at 6000 feet AGL
Weather: no significant weather observed at this time

METAR text: LJLJ 201300Z 06004KT 350V100 9999 FEW060 30/16 Q1019 NOSIG
Conditions at: LJLJ (LJUBLJANA/BRNIK , SI) observed 1300 UTC 20 August 2019
Temperature: 30.0°C (86°F)
Dewpoint: 16.0°C (61°F) [RH = 43%]
Pressure (altimeter): 30.09 inches Hg (1019.0 mb)
Winds: from the ENE (60 degrees) at 5 MPH (4 knots; 2.1 m/s)
Visibility: 6 or more miles (10+ km)
Ceiling: at least 12,000 feet AGL
Clouds: few clouds at 6000 feet AGL
Weather: no significant weather observed at this time

METAR text: LJLJ 201230Z VRB03KT 9999 FEW060 30/18 Q1019 NOSIG
Conditions at: LJLJ (LJUBLJANA/BRNIK , SI) observed 1230 UTC 20 August 2019
Temperature: 30.0°C (86°F)
Dewpoint: 18.0°C (64°F) [RH = 49%]
Pressure (altimeter): 30.09 inches Hg (1019.0 mb)
Winds: variable direction winds at 3 MPH (3 knots; 1.5 m/s)
Visibility: 6 or more miles (10+ km)
Ceiling: at least 12,000 feet AGL
Clouds: few clouds at 6000 feet AGL
Weather: no significant weather observed at this time

METAR text: LJLJ 201200Z 12004KT 050V170 9999 FEW060 29/17 Q1019 NOSIG
Conditions at: LJLJ (LJUBLJANA/BRNIK , SI) observed 1200 UTC 20 August 2019
Temperature: 29.0°C (84°F)
Dewpoint: 17.0°C (63°F) [RH = 48%]
Pressure (altimeter): 30.09 inches Hg (1019.0 mb)
Winds: from the ESE (120 degrees) at 5 MPH (4 knots; 2.1 m/s)
Visibility: 6 or more miles (10+ km)
Ceiling: at least 12,000 feet AGL
Clouds: few clouds at 6000 feet AGL
Weather: no significant weather observed at this time

METAR text: LJLJ 201130Z VRB02KT 9999 FEW060 28/18 Q1019 NOSIG
Conditions at: LJLJ (LJUBLJANA/BRNIK , SI) observed 1130 UTC 20 August 2019
Temperature: 28.0°C (82°F)
Dewpoint: 18.0°C (64°F) [RH = 55%]
Pressure (altimeter): 30.09 inches Hg (1019.0 mb)
Winds: variable direction winds at 2 MPH (2 knots; 1.0 m/s)
Visibility: 6 or more miles (10+ km)
Ceiling: at least 12,000 feet AGL
Clouds: few clouds at 6000 feet AGL
Weather: no significant weather observed at this time

METAR text: LJLJ 201100Z 06003KT 9999 FEW060 28/18 Q1020 NOSIG
Conditions at: LJLJ (LJUBLJANA/BRNIK , SI) observed 1100 UTC 20 August 2019
Temperature: 28.0°C (82°F)
Dewpoint: 18.0°C (64°F) [RH = 55%]
Pressure (altimeter): 30.12 inches Hg (1020.0 mb)
Winds: from the ENE (60 degrees) at 3 MPH (3 knots; 1.5 m/s)
Visibility: 6 or more miles (10+ km)
Ceiling: at least 12,000 feet AGL
Clouds: few clouds at 6000 feet AGL
Weather: no significant weather observed at this time

METAR text: LJLJ 201030Z 09003KT 030V140 9999 FEW060 SCT200 27/19 Q1020 NOSIG
Conditions at: LJLJ (LJUBLJANA/BRNIK , SI) observed 1030 UTC 20 August 2019
Temperature: 27.0°C (81°F)
Dewpoint: 19.0°C (66°F) [RH = 62%]
Pressure (altimeter): 30.12 inches Hg (1020.0 mb)
Winds: from the E (90 degrees) at 3 MPH (3 knots; 1.5 m/s)
Visibility: 6 or more miles (10+ km)
Ceiling: at least 12,000 feet AGL
Clouds: few clouds at 6000 feet AGL
scattered clouds at 20000 feet AGL
Weather: no significant weather observed at this time

METAR text: LJLJ 201000Z VRB01KT 9999 FEW060 SCT200 27/19 Q1020 NOSIG
Conditions at: LJLJ (LJUBLJANA/BRNIK , SI) observed 1000 UTC 20 August 2019
Temperature: 27.0°C (81°F)
Dewpoint: 19.0°C (66°F) [RH = 62%]
Pressure (altimeter): 30.12 inches Hg (1020.0 mb)
Winds: variable direction winds at 1 MPH (1 knots; 0.5 m/s)
Visibility: 6 or more miles (10+ km)
Ceiling: at least 12,000 feet AGL
Clouds: few clouds at 6000 feet AGL
scattered clouds at 20000 feet AGL
Weather: no significant weather observed at this time

METAR text: LJLJ 200930Z VRB01KT 9999 FEW060 SCT200 26/18 Q1020 NOSIG
Conditions at: LJLJ (LJUBLJANA/BRNIK , SI) observed 0930 UTC 20 August 2019
Temperature: 26.0°C (79°F)
Dewpoint: 18.0°C (64°F) [RH = 61%]
Pressure (altimeter): 30.12 inches Hg (1020.0 mb)
Winds: variable direction winds at 1 MPH (1 knots; 0.5 m/s)
Visibility: 6 or more miles (10+ km)
Ceiling: at least 12,000 feet AGL
Clouds: few clouds at 6000 feet AGL
scattered clouds at 20000 feet AGL
Weather: no significant weather observed at this time

METAR text: LJLJ 200900Z VRB02KT 9999 FEW060 SCT200 25/17 Q1020 NOSIG
Conditions at: LJLJ (LJUBLJANA/BRNIK , SI) observed 0900 UTC 20 August 2019
Temperature: 25.0°C (77°F)
Dewpoint: 17.0°C (63°F) [RH = 61%]
Pressure (altimeter): 30.12 inches Hg (1020.0 mb)
Winds: variable direction winds at 2 MPH (2 knots; 1.0 m/s)
Visibility: 6 or more miles (10+ km)
Ceiling: at least 12,000 feet AGL
Clouds: few clouds at 6000 feet AGL
scattered clouds at 20000 feet AGL
Weather: no significant weather observed at this time

METAR text: LJLJ 200830Z VRB01KT 9999 FEW060 25/18 Q1020 NOSIG
Conditions at: LJLJ (LJUBLJANA/BRNIK , SI) observed 0830 UTC 20 August 2019
Temperature: 25.0°C (77°F)
Dewpoint: 18.0°C (64°F) [RH = 65%]
Pressure (altimeter): 30.12 inches Hg (1020.0 mb)
Winds: variable direction winds at 1 MPH (1 knots; 0.5 m/s)
Visibility: 6 or more miles (10+ km)
Ceiling: at least 12,000 feet AGL
Clouds: few clouds at 6000 feet AGL
Weather: no significant weather observed at this time

METAR text: LJLJ 200800Z VRB02KT 9999 FEW050 24/17 Q1020 NOSIG
Conditions at: LJLJ (LJUBLJANA/BRNIK , SI) observed 0800 UTC 20 August 2019
Temperature: 24.0°C (75°F)
Dewpoint: 17.0°C (63°F) [RH = 65%]
Pressure (altimeter): 30.12 inches Hg (1020.0 mb)
Winds: variable direction winds at 2 MPH (2 knots; 1.0 m/s)
Visibility: 6 or more miles (10+ km)
Ceiling: at least 12,000 feet AGL
Clouds: few clouds at 5000 feet AGL
Weather: no significant weather observed at this time

METAR text: LJLJ 200730Z VRB01KT 9999 FEW050 22/17 Q1020 NOSIG
Conditions at: LJLJ (LJUBLJANA/BRNIK , SI) observed 0730 UTC 20 August 2019
Temperature: 22.0°C (72°F)
Dewpoint: 17.0°C (63°F) [RH = 73%]
Pressure (altimeter): 30.12 inches Hg (1020.0 mb)
Winds: variable direction winds at 1 MPH (1 knots; 0.5 m/s)
Visibility: 6 or more miles (10+ km)
Ceiling: at least 12,000 feet AGL
Clouds: few clouds at 5000 feet AGL
Weather: no significant weather observed at this time

METAR text: LJLJ 200700Z VRB01KT 9999 FEW050 21/16 Q1020 NOSIG
Conditions at: LJLJ (LJUBLJANA/BRNIK , SI) observed 0700 UTC 20 August 2019
Temperature: 21.0°C (70°F)
Dewpoint: 16.0°C (61°F) [RH = 73%]
Pressure (altimeter): 30.12 inches Hg (1020.0 mb)
Winds: variable direction winds at 1 MPH (1 knots; 0.5 m/s)
Visibility: 6 or more miles (10+ km)
Ceiling: at least 12,000 feet AGL
Clouds: few clouds at 5000 feet AGL
Weather: no significant weather observed at this time

METAR text: LJLJ 200630Z 29003KT 230V330 9999 FEW050 20/16 Q1020 NOSIG
Conditions at: LJLJ (LJUBLJANA/BRNIK , SI) observed 0630 UTC 20 August 2019
Temperature: 20.0°C (68°F)
Dewpoint: 16.0°C (61°F) [RH = 78%]
Pressure (altimeter): 30.12 inches Hg (1020.0 mb)
Winds: from the WNW (290 degrees) at 3 MPH (3 knots; 1.5 m/s)
Visibility: 6 or more miles (10+ km)
Ceiling: at least 12,000 feet AGL
Clouds: few clouds at 5000 feet AGL
Weather: no significant weather observed at this time

METAR text: LJLJ 200600Z VRB01KT 9999 FEW050 18/16 Q1020 NOSIG
Conditions at: LJLJ (LJUBLJANA/BRNIK , SI) observed 0600 UTC 20 August 2019
Temperature: 18.0°C (64°F)
Dewpoint: 16.0°C (61°F) [RH = 88%]
Pressure (altimeter): 30.12 inches Hg (1020.0 mb)
Winds: variable direction winds at 1 MPH (1 knots; 0.5 m/s)
Visibility: 6 or more miles (10+ km)
Ceiling: at least 12,000 feet AGL
Clouds: few clouds at 5000 feet AGL
Weather: no significant weather observed at this time

METAR text: LJLJ 200530Z VRB01KT 9999 FEW050 17/16 Q1020 NOSIG
Conditions at: LJLJ (LJUBLJANA/BRNIK , SI) observed 0530 UTC 20 August 2019
Temperature: 17.0°C (63°F)
Dewpoint: 16.0°C (61°F) [RH = 94%]
Pressure (altimeter): 30.12 inches Hg (1020.0 mb)
Winds: variable direction winds at 1 MPH (1 knots; 0.5 m/s)
Visibility: 6 or more miles (10+ km)
Ceiling: at least 12,000 feet AGL
Clouds: few clouds at 5000 feet AGL
Weather: no significant weather observed at this time

METAR text: LJLJ 200500Z 00000KT 9999 FEW050 15/15 Q1020 NOSIG
Conditions at: LJLJ (LJUBLJANA/BRNIK , SI) observed 0500 UTC 20 August 2019
Temperature: 15.0°C (59°F)
Dewpoint: 15.0°C (59°F) [RH = 100%]
Pressure (altimeter): 30.12 inches Hg (1020.0 mb)
Winds: calm
Visibility: 6 or more miles (10+ km)
Ceiling: at least 12,000 feet AGL
Clouds: few clouds at 5000 feet AGL
Weather: no significant weather observed at this time

METAR text: LJLJ 200430Z VRB01KT 9999 MIFG NSC 14/14 Q1020 NOSIG
Conditions at: LJLJ (LJUBLJANA/BRNIK , SI) observed 0430 UTC 20 August 2019
Temperature: 14.0°C (57°F)
Dewpoint: 14.0°C (57°F) [RH = 100%]
Pressure (altimeter): 30.12 inches Hg (1020.0 mb)
Winds: variable direction winds at 1 MPH (1 knots; 0.5 m/s)
Visibility: 6 or more miles (10+ km)
Ceiling: at least 12,000 feet AGL
Clouds: sky clear below 12,000 feet AGL
Weather: MIFG  (shallow fog)

METAR text: LJLJ 200400Z VRB01KT 9999 MIFG NSC 14/14 Q1020 NOSIG
Conditions at: LJLJ (LJUBLJANA/BRNIK , SI) observed 0400 UTC 20 August 2019
Temperature: 14.0°C (57°F)
Dewpoint: 14.0°C (57°F) [RH = 100%]
Pressure (altimeter): 30.12 inches Hg (1020.0 mb)
Winds: variable direction winds at 1 MPH (1 knots; 0.5 m/s)
Visibility: 6 or more miles (10+ km)
Ceiling: at least 12,000 feet AGL
Clouds: sky clear below 12,000 feet AGL
Weather: MIFG  (shallow fog)

METAR text: LJLJ 200330Z 00000KT CAVOK 15/15 Q1019 NOSIG
Conditions at: LJLJ (LJUBLJANA/BRNIK , SI) observed 0330 UTC 20 August 2019
Temperature: 15.0°C (59°F)
Dewpoint: 15.0°C (59°F) [RH = 100%]
Pressure (altimeter): 30.09 inches Hg (1019.0 mb)
Winds: calm
Visibility: 6 or more miles (10+ km)
Ceiling: ceiling and visibility are OK
Clouds: unknown
Weather: no significant weather observed at this time

METAR text: LJLJ 200300Z 00000KT CAVOK 15/15 Q1019 NOSIG
Conditions at: LJLJ (LJUBLJANA/BRNIK , SI) observed 0300 UTC 20 August 2019
Temperature: 15.0°C (59°F)
Dewpoint: 15.0°C (59°F) [RH = 100%]
Pressure (altimeter): 30.09 inches Hg (1019.0 mb)
Winds: calm
Visibility: 6 or more miles (10+ km)
Ceiling: ceiling and visibility are OK
Clouds: unknown
Weather: no significant weather observed at this time

METAR text: LJLJ 200230Z VRB01KT CAVOK 15/15 Q1019 NOSIG
Conditions at: LJLJ (LJUBLJANA/BRNIK , SI) observed 0230 UTC 20 August 2019
Temperature: 15.0°C (59°F)
Dewpoint: 15.0°C (59°F) [RH = 100%]
Pressure (altimeter): 30.09 inches Hg (1019.0 mb)
Winds: variable direction winds at 1 MPH (1 knots; 0.5 m/s)
Visibility: 6 or more miles (10+ km)
Ceiling: ceiling and visibility are OK
Clouds: unknown
Weather: no significant weather observed at this time

METAR text: LJLJ 200200Z VRB01KT CAVOK 15/15 Q1019 NOSIG
Conditions at: LJLJ (LJUBLJANA/BRNIK , SI) observed 0200 UTC 20 August 2019
Temperature: 15.0°C (59°F)
Dewpoint: 15.0°C (59°F) [RH = 100%]
Pressure (altimeter): 30.09 inches Hg (1019.0 mb)
Winds: variable direction winds at 1 MPH (1 knots; 0.5 m/s)
Visibility: 6 or more miles (10+ km)
Ceiling: ceiling and visibility are OK
Clouds: unknown
Weather: no significant weather observed at this time

METAR text: LJLJ 200130Z 31003KT CAVOK 15/15 Q1019 NOSIG
Conditions at: LJLJ (LJUBLJANA/BRNIK , SI) observed 0130 UTC 20 August 2019
Temperature: 15.0°C (59°F)
Dewpoint: 15.0°C (59°F) [RH = 100%]
Pressure (altimeter): 30.09 inches Hg (1019.0 mb)
Winds: from the NW (310 degrees) at 3 MPH (3 knots; 1.5 m/s)
Visibility: 6 or more miles (10+ km)
Ceiling: ceiling and visibility are OK
Clouds: unknown
Weather: no significant weather observed at this time

METAR text: LJLJ 200100Z 29003KT CAVOK 16/15 Q1019 NOSIG
Conditions at: LJLJ (LJUBLJANA/BRNIK , SI) observed 0100 UTC 20 August 2019
Temperature: 16.0°C (61°F)
Dewpoint: 15.0°C (59°F) [RH = 94%]
Pressure (altimeter): 30.09 inches Hg (1019.0 mb)
Winds: from the WNW (290 degrees) at 3 MPH (3 knots; 1.5 m/s)
Visibility: 6 or more miles (10+ km)
Ceiling: ceiling and visibility are OK
Clouds: unknown
Weather: no significant weather observed at this time

METAR text: LJLJ 200030Z VRB01KT CAVOK 16/15 Q1019 NOSIG
Conditions at: LJLJ (LJUBLJANA/BRNIK , SI) observed 0030 UTC 20 August 2019
Temperature: 16.0°C (61°F)
Dewpoint: 15.0°C (59°F) [RH = 94%]
Pressure (altimeter): 30.09 inches Hg (1019.0 mb)
Winds: variable direction winds at 1 MPH (1 knots; 0.5 m/s)
Visibility: 6 or more miles (10+ km)
Ceiling: ceiling and visibility are OK
Clouds: unknown
Weather: no significant weather observed at this time

METAR text: LJLJ 200000Z 27003KT CAVOK 16/16 Q1019 NOSIG
Conditions at: LJLJ (LJUBLJANA/BRNIK , SI) observed 0000 UTC 20 August 2019
Temperature: 16.0°C (61°F)
Dewpoint: 16.0°C (61°F) [RH = 100%]
Pressure (altimeter): 30.09 inches Hg (1019.0 mb)
Winds: from the W (270 degrees) at 3 MPH (3 knots; 1.5 m/s)
Visibility: 6 or more miles (10+ km)
Ceiling: ceiling and visibility are OK
Clouds: unknown
Weather: no significant weather observed at this time

METAR text: LJLJ 192330Z 26001KT CAVOK 17/16 Q1019 NOSIG
Conditions at: LJLJ (LJUBLJANA/BRNIK , SI) observed 2330 UTC 19 August 2019
Temperature: 17.0°C (63°F)
Dewpoint: 16.0°C (61°F) [RH = 94%]
Pressure (altimeter): 30.09 inches Hg (1019.0 mb)
Winds: from the W (260 degrees) at 1 MPH (1 knots; 0.5 m/s)
Visibility: 6 or more miles (10+ km)
Ceiling: ceiling and visibility are OK
Clouds: unknown
Weather: no significant weather observed at this time

METAR text: LJLJ 192300Z VRB01KT CAVOK 17/16 Q1019 NOSIG
Conditions at: LJLJ (LJUBLJANA/BRNIK , SI) observed 2300 UTC 19 August 2019
Temperature: 17.0°C (63°F)
Dewpoint: 16.0°C (61°F) [RH = 94%]
Pressure (altimeter): 30.09 inches Hg (1019.0 mb)
Winds: variable direction winds at 1 MPH (1 knots; 0.5 m/s)
Visibility: 6 or more miles (10+ km)
Ceiling: ceiling and visibility are OK
Clouds: unknown
Weather: no significant weather observed at this time

METAR text: LJLJ 192230Z VRB02KT 9999 FEW068 17/16 Q1019 NOSIG
Conditions at: LJLJ (LJUBLJANA/BRNIK , SI) observed 2230 UTC 19 August 2019
Temperature: 17.0°C (63°F)
Dewpoint: 16.0°C (61°F) [RH = 94%]
Pressure (altimeter): 30.09 inches Hg (1019.0 mb)
Winds: variable direction winds at 2 MPH (2 knots; 1.0 m/s)
Visibility: 6 or more miles (10+ km)
Ceiling: at least 12,000 feet AGL
Clouds: few clouds at 6800 feet AGL
Weather: no significant weather observed at this time

METAR text: LJLJ 192200Z VRB02KT 9999 FEW068 18/17 Q1019 NOSIG
Conditions at: LJLJ (LJUBLJANA/BRNIK , SI) observed 2200 UTC 19 August 2019
Temperature: 18.0°C (64°F)
Dewpoint: 17.0°C (63°F) [RH = 94%]
Pressure (altimeter): 30.09 inches Hg (1019.0 mb)
Winds: variable direction winds at 2 MPH (2 knots; 1.0 m/s)
Visibility: 6 or more miles (10+ km)
Ceiling: at least 12,000 feet AGL
Clouds: few clouds at 6800 feet AGL
Weather: no significant weather observed at this time

METAR text: LJLJ 192130Z VRB01KT 9999 FEW050 18/17 Q1019 NOSIG
Conditions at: LJLJ (LJUBLJANA/BRNIK , SI) observed 2130 UTC 19 August 2019
Temperature: 18.0°C (64°F)
Dewpoint: 17.0°C (63°F) [RH = 94%]
Pressure (altimeter): 30.09 inches Hg (1019.0 mb)
Winds: variable direction winds at 1 MPH (1 knots; 0.5 m/s)
Visibility: 6 or more miles (10+ km)
Ceiling: at least 12,000 feet AGL
Clouds: few clouds at 5000 feet AGL
Weather: no significant weather observed at this time

METAR text: LJLJ 192100Z VRB01KT CAVOK 19/17 Q1019 NOSIG
Conditions at: LJLJ (LJUBLJANA/BRNIK , SI) observed 2100 UTC 19 August 2019
Temperature: 19.0°C (66°F)
Dewpoint: 17.0°C (63°F) [RH = 88%]
Pressure (altimeter): 30.09 inches Hg (1019.0 mb)
Winds: variable direction winds at 1 MPH (1 knots; 0.5 m/s)
Visibility: 6 or more miles (10+ km)
Ceiling: ceiling and visibility are OK
Clouds: unknown
Weather: no significant weather observed at this time

METAR text: LJLJ 192030Z VRB02KT CAVOK 20/17 Q1018 NOSIG
Conditions at: LJLJ (LJUBLJANA/BRNIK , SI) observed 2030 UTC 19 August 2019
Temperature: 20.0°C (68°F)
Dewpoint: 17.0°C (63°F) [RH = 83%]
Pressure (altimeter): 30.06 inches Hg (1018.0 mb)
Winds: variable direction winds at 2 MPH (2 knots; 1.0 m/s)
Visibility: 6 or more miles (10+ km)
Ceiling: ceiling and visibility are OK
Clouds: unknown
Weather: no significant weather observed at this time

METAR text: LJLJ 192000Z VRB02KT 9999 FEW065 20/17 Q1018 NOSIG
Conditions at: LJLJ (LJUBLJANA/BRNIK , SI) observed 2000 UTC 19 August 2019
Temperature: 20.0°C (68°F)
Dewpoint: 17.0°C (63°F) [RH = 83%]
Pressure (altimeter): 30.06 inches Hg (1018.0 mb)
Winds: variable direction winds at 2 MPH (2 knots; 1.0 m/s)
Visibility: 6 or more miles (10+ km)
Ceiling: at least 12,000 feet AGL
Clouds: few clouds at 6500 feet AGL
Weather: no significant weather observed at this time

METAR text: LJLJ 191930Z 00000KT 9999 FEW055 21/17 Q1018 NOSIG
Conditions at: LJLJ (LJUBLJANA/BRNIK , SI) observed 1930 UTC 19 August 2019
Temperature: 21.0°C (70°F)
Dewpoint: 17.0°C (63°F) [RH = 78%]
Pressure (altimeter): 30.06 inches Hg (1018.0 mb)
Winds: calm
Visibility: 6 or more miles (10+ km)
Ceiling: at least 12,000 feet AGL
Clouds: few clouds at 5500 feet AGL
Weather: no significant weather observed at this time

METAR text: LJLJ 191900Z VRB02KT 9999 FEW055 22/18 Q1018 NOSIG
Conditions at: LJLJ (LJUBLJANA/BRNIK , SI) observed 1900 UTC 19 August 2019
Temperature: 22.0°C (72°F)
Dewpoint: 18.0°C (64°F) [RH = 78%]
Pressure (altimeter): 30.06 inches Hg (1018.0 mb)
Winds: variable direction winds at 2 MPH (2 knots; 1.0 m/s)
Visibility: 6 or more miles (10+ km)
Ceiling: at least 12,000 feet AGL
Clouds: few clouds at 5500 feet AGL
Weather: no significant weather observed at this time

METAR text: LJLJ 191830Z 33003KT 260V010 9999 FEW060 23/17 Q1017 NOSIG
Conditions at: LJLJ (LJUBLJANA/BRNIK , SI) observed 1830 UTC 19 August 2019
Temperature: 23.0°C (73°F)
Dewpoint: 17.0°C (63°F) [RH = 69%]
Pressure (altimeter): 30.03 inches Hg (1017.0 mb)
Winds: from the NNW (330 degrees) at 3 MPH (3 knots; 1.5 m/s)
Visibility: 6 or more miles (10+ km)
Ceiling: at least 12,000 feet AGL
Clouds: few clouds at 6000 feet AGL
Weather: no significant weather observed at this time

METAR text: LJLJ 191800Z 23005KT 9999 FEW055 SCT250 24/18 Q1017 NOSIG
Conditions at: LJLJ (LJUBLJANA/BRNIK , SI) observed 1800 UTC 19 August 2019
Temperature: 24.0°C (75°F)
Dewpoint: 18.0°C (64°F) [RH = 69%]
Pressure (altimeter): 30.03 inches Hg (1017.0 mb)
Winds: from the SW (230 degrees) at 6 MPH (5 knots; 2.6 m/s)
Visibility: 6 or more miles (10+ km)
Ceiling: at least 12,000 feet AGL
Clouds: few clouds at 5500 feet AGL
scattered clouds at 25000 feet AGL
Weather: no significant weather observed at this time

METAR text: LJLJ 191730Z 22003KT 9999 FEW055 27/18 Q1017 NOSIG
Conditions at: LJLJ (LJUBLJANA/BRNIK , SI) observed 1730 UTC 19 August 2019
Temperature: 27.0°C (81°F)
Dewpoint: 18.0°C (64°F) [RH = 58%]
Pressure (altimeter): 30.03 inches Hg (1017.0 mb)
Winds: from the SW (220 degrees) at 3 MPH (3 knots; 1.5 m/s)
Visibility: 6 or more miles (10+ km)
Ceiling: at least 12,000 feet AGL
Clouds: few clouds at 5500 feet AGL
Weather: no significant weather observed at this time

METAR text: LJLJ 191700Z 21004KT 170V240 9999 FEW055 29/16 Q1017 NOSIG
Conditions at: LJLJ (LJUBLJANA/BRNIK , SI) observed 1700 UTC 19 August 2019
Temperature: 29.0°C (84°F)
Dewpoint: 16.0°C (61°F) [RH = 45%]
Pressure (altimeter): 30.03 inches Hg (1017.0 mb)
Winds: from the SSW (210 degrees) at 5 MPH (4 knots; 2.1 m/s)
Visibility: 6 or more miles (10+ km)
Ceiling: at least 12,000 feet AGL
Clouds: few clouds at 5500 feet AGL
Weather: no significant weather observed at this time

METAR text: LJLJ 191630Z 18006KT 9999 FEW050 29/15 Q1016 NOSIG
Conditions at: LJLJ (LJUBLJANA/BRNIK , SI) observed 1630 UTC 19 August 2019
Temperature: 29.0°C (84°F)
Dewpoint: 15.0°C (59°F) [RH = 43%]
Pressure (altimeter): 30.00 inches Hg (1016.0 mb)
Winds: from the S (180 degrees) at 7 MPH (6 knots; 3.1 m/s)
Visibility: 6 or more miles (10+ km)
Ceiling: at least 12,000 feet AGL
Clouds: few clouds at 5000 feet AGL
Weather: no significant weather observed at this time

METAR text: LJLJ 191600Z 18006KT 150V210 9999 FEW050 30/15 Q1016 NOSIG
Conditions at: LJLJ (LJUBLJANA/BRNIK , SI) observed 1600 UTC 19 August 2019
Temperature: 30.0°C (86°F)
Dewpoint: 15.0°C (59°F) [RH = 40%]
Pressure (altimeter): 30.00 inches Hg (1016.0 mb)
Winds: from the S (180 degrees) at 7 MPH (6 knots; 3.1 m/s)
Visibility: 6 or more miles (10+ km)
Ceiling: at least 12,000 feet AGL
Clouds: few clouds at 5000 feet AGL
Weather: no significant weather observed at this time

METAR text: LJLJ 191530Z 16007KT 130V200 9999 FEW050 30/16 Q1016 NOSIG
Conditions at: LJLJ (LJUBLJANA/BRNIK , SI) observed 1530 UTC 19 August 2019
Temperature: 30.0°C (86°F)
Dewpoint: 16.0°C (61°F) [RH = 43%]
Pressure (altimeter): 30.00 inches Hg (1016.0 mb)
Winds: from the SSE (160 degrees) at 8 MPH (7 knots; 3.6 m/s)
Visibility: 6 or more miles (10+ km)
Ceiling: at least 12,000 feet AGL
Clouds: few clouds at 5000 feet AGL
Weather: no significant weather observed at this time

METAR text: LJLJ 191500Z 16005KT 070V200 9999 FEW050 30/16 Q1017 NOSIG
Conditions at: LJLJ (LJUBLJANA/BRNIK , SI) observed 1500 UTC 19 August 2019
Temperature: 30.0°C (86°F)
Dewpoint: 16.0°C (61°F) [RH = 43%]
Pressure (altimeter): 30.03 inches Hg (1017.0 mb)
Winds: from the SSE (160 degrees) at 6 MPH (5 knots; 2.6 m/s)
Visibility: 6 or more miles (10+ km)
Ceiling: at least 12,000 feet AGL
Clouds: few clouds at 5000 feet AGL
Weather: no significant weather observed at this time

METAR text: LJLJ 191430Z 18005KT 150V210 9999 FEW050 30/18 Q1017 NOSIG
Conditions at: LJLJ (LJUBLJANA/BRNIK , SI) observed 1430 UTC 19 August 2019
Temperature: 30.0°C (86°F)
Dewpoint: 18.0°C (64°F) [RH = 49%]
Pressure (altimeter): 30.03 inches Hg (1017.0 mb)
Winds: from the S (180 degrees) at 6 MPH (5 knots; 2.6 m/s)
Visibility: 6 or more miles (10+ km)
Ceiling: at least 12,000 feet AGL
Clouds: few clouds at 5000 feet AGL
Weather: no significant weather observed at this time

METAR text: LJLJ 191400Z VRB02KT 9999 SCT050 30/17 Q1017 NOSIG
Conditions at: LJLJ (LJUBLJANA/BRNIK , SI) observed 1400 UTC 19 August 2019
Temperature: 30.0°C (86°F)
Dewpoint: 17.0°C (63°F) [RH = 46%]
Pressure (altimeter): 30.03 inches Hg (1017.0 mb)
Winds: variable direction winds at 2 MPH (2 knots; 1.0 m/s)
Visibility: 6 or more miles (10+ km)
Ceiling: at least 12,000 feet AGL
Clouds: scattered clouds at 5000 feet AGL
Weather: no significant weather observed at this time

METAR text: LJLJ 191330Z 22004KT 160V260 9999 FEW045 29/18 Q1017 NOSIG
Conditions at: LJLJ (LJUBLJANA/BRNIK , SI) observed 1330 UTC 19 August 2019
Temperature: 29.0°C (84°F)
Dewpoint: 18.0°C (64°F) [RH = 52%]
Pressure (altimeter): 30.03 inches Hg (1017.0 mb)
Winds: from the SW (220 degrees) at 5 MPH (4 knots; 2.1 m/s)
Visibility: 6 or more miles (10+ km)
Ceiling: at least 12,000 feet AGL
Clouds: few clouds at 4500 feet AGL
Weather: no significant weather observed at this time

METAR text: LJLJ 191300Z 18002KT 9999 FEW045 30/18 Q1017 NOSIG
Conditions at: LJLJ (LJUBLJANA/BRNIK , SI) observed 1300 UTC 19 August 2019
Temperature: 30.0°C (86°F)
Dewpoint: 18.0°C (64°F) [RH = 49%]
Pressure (altimeter): 30.03 inches Hg (1017.0 mb)
Winds: from the S (180 degrees) at 2 MPH (2 knots; 1.0 m/s)
Visibility: 6 or more miles (10+ km)
Ceiling: at least 12,000 feet AGL
Clouds: few clouds at 4500 feet AGL
Weather: no significant weather observed at this time

METAR text: LJLJ 191230Z 10004KT 040V170 9999 FEW040 30/18 Q1017 NOSIG
Conditions at: LJLJ (LJUBLJANA/BRNIK , SI) observed 1230 UTC 19 August 2019
Temperature: 30.0°C (86°F)
Dewpoint: 18.0°C (64°F) [RH = 49%]
Pressure (altimeter): 30.03 inches Hg (1017.0 mb)
Winds: from the E (100 degrees) at 5 MPH (4 knots; 2.1 m/s)
Visibility: 6 or more miles (10+ km)
Ceiling: at least 12,000 feet AGL
Clouds: few clouds at 4000 feet AGL
Weather: no significant weather observed at this time

METAR text: LJLJ 191200Z 10004KT 360V160 9999 FEW040 28/18 Q1017 NOSIG
Conditions at: LJLJ (LJUBLJANA/BRNIK , SI) observed 1200 UTC 19 August 2019
Temperature: 28.0°C (82°F)
Dewpoint: 18.0°C (64°F) [RH = 55%]
Pressure (altimeter): 30.03 inches Hg (1017.0 mb)
Winds: from the E (100 degrees) at 5 MPH (4 knots; 2.1 m/s)
Visibility: 6 or more miles (10+ km)
Ceiling: at least 12,000 feet AGL
Clouds: few clouds at 4000 feet AGL
Weather: no significant weather observed at this time

METAR text: LJLJ 191130Z 10004KT 070V230 9999 FEW040 28/18 Q1017 NOSIG
Conditions at: LJLJ (LJUBLJANA/BRNIK , SI) observed 1130 UTC 19 August 2019
Temperature: 28.0°C (82°F)
Dewpoint: 18.0°C (64°F) [RH = 55%]
Pressure (altimeter): 30.03 inches Hg (1017.0 mb)
Winds: from the E (100 degrees) at 5 MPH (4 knots; 2.1 m/s)
Visibility: 6 or more miles (10+ km)
Ceiling: at least 12,000 feet AGL
Clouds: few clouds at 4000 feet AGL
Weather: no significant weather observed at this time

METAR text: LJLJ 191100Z 11004KT 020V190 9999 FEW040 28/19 Q1017 NOSIG
Conditions at: LJLJ (LJUBLJANA/BRNIK , SI) observed 1100 UTC 19 August 2019
Temperature: 28.0°C (82°F)
Dewpoint: 19.0°C (66°F) [RH = 58%]
Pressure (altimeter): 30.03 inches Hg (1017.0 mb)
Winds: from the ESE (110 degrees) at 5 MPH (4 knots; 2.1 m/s)
Visibility: 6 or more miles (10+ km)
Ceiling: at least 12,000 feet AGL
Clouds: few clouds at 4000 feet AGL
Weather: no significant weather observed at this time

METAR text: LJLJ 191030Z 09005KT 030V130 9999 FEW040 27/19 Q1017 NOSIG
Conditions at: LJLJ (LJUBLJANA/BRNIK , SI) observed 1030 UTC 19 August 2019
Temperature: 27.0°C (81°F)
Dewpoint: 19.0°C (66°F) [RH = 62%]
Pressure (altimeter): 30.03 inches Hg (1017.0 mb)
Winds: from the E (90 degrees) at 6 MPH (5 knots; 2.6 m/s)
Visibility: 6 or more miles (10+ km)
Ceiling: at least 12,000 feet AGL
Clouds: few clouds at 4000 feet AGL
Weather: no significant weather observed at this time

METAR text: LJLJ 191000Z 08004KT 030V130 9999 FEW030 26/19 Q1017 NOSIG
Conditions at: LJLJ (LJUBLJANA/BRNIK , SI) observed 1000 UTC 19 August 2019
Temperature: 26.0°C (79°F)
Dewpoint: 19.0°C (66°F) [RH = 65%]
Pressure (altimeter): 30.03 inches Hg (1017.0 mb)
Winds: from the E (80 degrees) at 5 MPH (4 knots; 2.1 m/s)
Visibility: 6 or more miles (10+ km)
Ceiling: at least 12,000 feet AGL
Clouds: few clouds at 3000 feet AGL
Weather: no significant weather observed at this time

METAR text: LJLJ 190930Z 13003KT 040V200 9999 FEW030 26/18 Q1017 NOSIG
Conditions at: LJLJ (LJUBLJANA/BRNIK , SI) observed 0930 UTC 19 August 2019
Temperature: 26.0°C (79°F)
Dewpoint: 18.0°C (64°F) [RH = 61%]
Pressure (altimeter): 30.03 inches Hg (1017.0 mb)
Winds: from the SE (130 degrees) at 3 MPH (3 knots; 1.5 m/s)
Visibility: 6 or more miles (10+ km)
Ceiling: at least 12,000 feet AGL
Clouds: few clouds at 3000 feet AGL
Weather: no significant weather observed at this time

Forecast for: LJLJ (LJUBLJANA/BRNIK , SI)
Text: TAF LJLJ 202000Z 2021/2121 VRB02KT CAVOK
Forecast period: 2100 UTC 20 August 2019 to 0600 UTC 21 August 2019
Forecast type: FROM: standard forecast or significant change
Winds: variable direction winds at 2 MPH (2 knots; 1.0 m/s)
Visibility: 6 or more miles 10+ km)
Ceiling: unknown
Clouds: missing
Weather: NSW  (no significant weather)
Text: TEMPO 2100/2106 FEW050
Forecast period: 0000 to 0600 UTC 21 August 2019
Forecast type: TEMPORARY: The following changes expected for less than half the time period
Visibility: missing
Ceiling: at least 12,000 feet AGL
Clouds: few clouds at 5000 feet AGL
Weather: no significant weather forecast for this period
Text: BECMG 2106/2109 12005KT SCT050
Forecast period: 0600 to 2100 UTC 21 August 2019
Forecast type: BECOMING: Conditions expected to become as follows by 0900 UTC 21 August 2019
Winds: from the ESE (120 degrees) at 6 MPH (5 knots; 2.6 m/s)
Visibility: 6 or more miles 10+ km)
Ceiling: at least 12,000 feet AGL
Clouds: scattered clouds at 5000 feet AGL
Weather: NSW  (no significant weather)
Text: PROB40
Forecast period: 0900 to 1800 UTC 21 August 2019
Forecast type: TEMPORARY: The following changes expected for less than half the time period
Winds: from the ESE (120 degrees) at 12 MPH (10 knots; 5.1 m/s)
Visibility: missing
Ceiling: 5000 feet AGL
Clouds: scattered clouds at 4000 feet AGL
broken clouds at 5000 feet AGL
Weather: SHRA  (rain showers)
Text: TEMPO 2109/2118 12010KT SHRA SCT040TCU BKN050
Forecast period: 1200 to 1700 UTC 21 August 2019
Forecast type: TEMPORARY: The following changes expected for less than half the time period
Visibility: 4 miles (6 km)
Ceiling: 5000 feet AGL
Clouds: scattered clouds at 4000 feet AGL
broken clouds at 5000 feet AGL
Weather: TSRA  (rain associated with thunderstorm(s))
Text: PROB30
Forecast period: 1800 to 2100 UTC 21 August 2019
Forecast type: TEMPORARY: The following changes expected for less than half the time period
Visibility: missing
Ceiling: 5000 feet AGL
Clouds: broken clouds at 5000 feet AGL
Weather: no significant weather forecast for this period